sensor_id;sensor_type;location;lat;lon;timestamp;P1;durP1;ratioP1;P2;durP2;ratioP2
11531;SDS011;5822;51.000;5.874;2023-01-23T00:00:37;37.03;;;34.03;;
11531;SDS011;5822;51.000;5.874;2023-01-23T00:03:05;32.78;;;29.85;;
11531;SDS011;5822;51.000;5.874;2023-01-23T00:05:30;32.30;;;29.30;;
11531;SDS011;5822;51.000;5.874;2023-01-23T00:07:56;33.10;;;30.23;;
11531;SDS011;5822;51.000;5.874;2023-01-23T00:10:22;36.00;;;32.90;;
11531;SDS011;5822;51.000;5.874;2023-01-23T00:12:47;34.15;;;31.27;;
11531;SDS011;5822;51.000;5.874;2023-01-23T00:15:13;31.65;;;28.90;;
11531;SDS011;5822;51.000;5.874;2023-01-23T00:17:40;32.88;;;30.08;;
11531;SDS011;5822;51.000;5.874;2023-01-23T00:20:06;34.50;;;31.70;;
11531;SDS011;5822;51.000;5.874;2023-01-23T00:22:33;32.63;;;29.95;;
11531;SDS011;5822;51.000;5.874;2023-01-23T00:24:59;31.00;;;28.20;;
11531;SDS011;5822;51.000;5.874;2023-01-23T00:27:25;30.08;;;27.42;;
11531;SDS011;5822;51.000;5.874;2023-01-23T00:29:51;29.33;;;26.92;;
11531;SDS011;5822;51.000;5.874;2023-01-23T00:32:17;31.80;;;29.20;;
11531;SDS011;5822;51.000;5.874;2023-01-23T00:34:43;39.78;;;36.78;;
11531;SDS011;5822;51.000;5.874;2023-01-23T00:37:10;36.10;;;33.28;;
11531;SDS011;5822;51.000;5.874;2023-01-23T00:39:35;33.60;;;30.90;;
11531;SDS011;5822;51.000;5.874;2023-01-23T00:42:01;34.63;;;31.73;;
11531;SDS011;5822;51.000;5.874;2023-01-23T00:44:27;35.55;;;32.65;;
11531;SDS011;5822;51.000;5.874;2023-01-23T00:46:52;35.50;;;32.40;;
11531;SDS011;5822;51.000;5.874;2023-01-23T00:49:18;34.03;;;31.23;;
11531;SDS011;5822;51.000;5.874;2023-01-23T00:51:44;34.70;;;31.80;;
11531;SDS011;5822;51.000;5.874;2023-01-23T00:54:10;34.03;;;31.02;;
11531;SDS011;5822;51.000;5.874;2023-01-23T00:56:36;33.73;;;30.90;;
11531;SDS011;5822;51.000;5.874;2023-01-23T00:59:01;34.03;;;31.23;;
11531;SDS011;5822;51.000;5.874;2023-01-23T01:01:27;35.35;;;32.55;;
11531;SDS011;5822;51.000;5.874;2023-01-23T01:03:55;35.58;;;32.80;;
11531;SDS011;5822;51.000;5.874;2023-01-23T01:06:22;31.02;;;28.58;;
11531;SDS011;5822;51.000;5.874;2023-01-23T01:08:47;32.90;;;30.07;;
11531;SDS011;5822;51.000;5.874;2023-01-23T01:11:13;34.00;;;31.08;;
11531;SDS011;5822;51.000;5.874;2023-01-23T01:13:39;34.95;;;31.95;;
11531;SDS011;5822;51.000;5.874;2023-01-23T01:16:05;32.47;;;29.73;;
11531;SDS011;5822;51.000;5.874;2023-01-23T01:18:31;34.20;;;31.40;;
11531;SDS011;5822;51.000;5.874;2023-01-23T01:20:57;33.22;;;30.60;;
11531;SDS011;5822;51.000;5.874;2023-01-23T01:23:23;33.63;;;30.75;;
11531;SDS011;5822;51.000;5.874;2023-01-23T01:25:48;33.50;;;30.70;;
11531;SDS011;5822;51.000;5.874;2023-01-23T01:28:14;34.53;;;31.63;;
11531;SDS011;5822;51.000;5.874;2023-01-23T01:30:40;34.90;;;32.00;;
11531;SDS011;5822;51.000;5.874;2023-01-23T01:33:05;45.00;;;41.60;;
11531;SDS011;5822;51.000;5.874;2023-01-23T01:35:31;36.38;;;33.47;;
11531;SDS011;5822;51.000;5.874;2023-01-23T01:37:57;36.33;;;33.33;;
11531;SDS011;5822;51.000;5.874;2023-01-23T01:40:24;35.17;;;32.27;;
11531;SDS011;5822;51.000;5.874;2023-01-23T01:42:55;36.67;;;33.67;;
11531;SDS011;5822;51.000;5.874;2023-01-23T01:54:21;34.93;;;32.13;;
11531;SDS011;5822;51.000;5.874;2023-01-23T02:05:10;34.72;;;31.90;;
11531;SDS011;5822;51.000;5.874;2023-01-23T02:07:57;32.30;;;29.60;;
11531;SDS011;5822;51.000;5.874;2023-01-23T02:10:29;32.08;;;29.38;;
11531;SDS011;5822;51.000;5.874;2023-01-23T02:13:15;32.55;;;29.77;;
11531;SDS011;5822;51.000;5.874;2023-01-23T02:15:58;35.05;;;32.25;;
11531;SDS011;5822;51.000;5.874;2023-01-23T02:18:26;31.95;;;29.33;;
11531;SDS011;5822;51.000;5.874;2023-01-23T02:20:53;34.22;;;31.52;;
11531;SDS011;5822;51.000;5.874;2023-01-23T02:26:03;34.38;;;31.38;;
11531;SDS011;5822;51.000;5.874;2023-01-23T02:31:04;31.88;;;29.27;;
11531;SDS011;5822;51.000;5.874;2023-01-23T02:35:59;50.20;;;46.70;;
11531;SDS011;5822;51.000;5.874;2023-01-23T02:38:28;35.08;;;32.38;;
11531;SDS011;5822;51.000;5.874;2023-01-23T02:40:56;31.85;;;29.33;;
11531;SDS011;5822;51.000;5.874;2023-01-23T02:43:26;32.33;;;29.65;;
11531;SDS011;5822;51.000;5.874;2023-01-23T02:46:02;29.02;;;26.63;;
11531;SDS011;5822;51.000;5.874;2023-01-23T02:48:29;29.30;;;27.00;;
11531;SDS011;5822;51.000;5.874;2023-01-23T02:50:54;31.45;;;28.85;;
11531;SDS011;5822;51.000;5.874;2023-01-23T02:53:20;34.28;;;31.30;;
11531;SDS011;5822;51.000;5.874;2023-01-23T02:55:46;34.97;;;31.93;;
11531;SDS011;5822;51.000;5.874;2023-01-23T02:58:14;35.55;;;32.65;;
11531;SDS011;5822;51.000;5.874;2023-01-23T03:00:59;34.45;;;31.58;;
11531;SDS011;5822;51.000;5.874;2023-01-23T03:03:24;37.17;;;34.08;;
11531;SDS011;5822;51.000;5.874;2023-01-23T03:05:50;36.50;;;33.20;;
11531;SDS011;5822;51.000;5.874;2023-01-23T03:08:16;33.50;;;30.60;;
11531;SDS011;5822;51.000;5.874;2023-01-23T03:10:41;34.17;;;31.00;;
11531;SDS011;5822;51.000;5.874;2023-01-23T03:13:07;33.78;;;30.98;;
11531;SDS011;5822;51.000;5.874;2023-01-23T03:15:36;34.83;;;31.83;;
11531;SDS011;5822;51.000;5.874;2023-01-23T03:18:08;35.47;;;32.50;;
11531;SDS011;5822;51.000;5.874;2023-01-23T03:20:37;31.90;;;29.40;;
11531;SDS011;5822;51.000;5.874;2023-01-23T03:23:03;32.42;;;29.80;;
11531;SDS011;5822;51.000;5.874;2023-01-23T03:25:29;30.02;;;27.55;;
11531;SDS011;5822;51.000;5.874;2023-01-23T03:27:54;30.92;;;28.42;;
11531;SDS011;5822;51.000;5.874;2023-01-23T03:30:20;32.27;;;29.47;;
11531;SDS011;5822;51.000;5.874;2023-01-23T03:32:46;32.70;;;29.80;;
11531;SDS011;5822;51.000;5.874;2023-01-23T03:35:12;40.85;;;37.55;;
11531;SDS011;5822;51.000;5.874;2023-01-23T03:37:41;42.53;;;39.33;;
11531;SDS011;5822;51.000;5.874;2023-01-23T03:40:14;35.75;;;32.95;;
11531;SDS011;5822;51.000;5.874;2023-01-23T03:43:00;37.45;;;34.35;;
11531;SDS011;5822;51.000;5.874;2023-01-23T03:45:26;35.17;;;32.38;;
11531;SDS011;5822;51.000;5.874;2023-01-23T03:47:51;34.88;;;32.08;;
11531;SDS011;5822;51.000;5.874;2023-01-23T03:50:17;43.65;;;40.35;;
11531;SDS011;5822;51.000;5.874;2023-01-23T03:52:42;32.25;;;29.65;;
11531;SDS011;5822;51.000;5.874;2023-01-23T03:55:08;30.80;;;28.30;;
11531;SDS011;5822;51.000;5.874;2023-01-23T03:57:34;32.47;;;29.87;;
11531;SDS011;5822;51.000;5.874;2023-01-23T03:59:59;33.50;;;30.70;;
11531;SDS011;5822;51.000;5.874;2023-01-23T04:02:25;32.90;;;30.27;;
11531;SDS011;5822;51.000;5.874;2023-01-23T04:04:51;33.13;;;30.52;;
11531;SDS011;5822;51.000;5.874;2023-01-23T04:07:17;32.53;;;29.97;;
11531;SDS011;5822;51.000;5.874;2023-01-23T04:09:43;33.10;;;30.50;;
11531;SDS011;5822;51.000;5.874;2023-01-23T04:12:08;32.37;;;29.87;;
11531;SDS011;5822;51.000;5.874;2023-01-23T04:14:34;33.47;;;30.97;;
11531;SDS011;5822;51.000;5.874;2023-01-23T04:17:01;42.03;;;38.92;;
11531;SDS011;5822;51.000;5.874;2023-01-23T04:19:30;32.45;;;29.83;;
11531;SDS011;5822;51.000;5.874;2023-01-23T04:21:56;33.25;;;30.55;;
11531;SDS011;5822;51.000;5.874;2023-01-23T04:24:22;33.53;;;30.93;;
11531;SDS011;5822;51.000;5.874;2023-01-23T04:26:47;33.43;;;30.93;;
11531;SDS011;5822;51.000;5.874;2023-01-23T04:29:13;39.03;;;36.15;;
11531;SDS011;5822;51.000;5.874;2023-01-23T04:31:39;33.30;;;30.65;;
11531;SDS011;5822;51.000;5.874;2023-01-23T04:34:05;35.30;;;32.73;;
11531;SDS011;5822;51.000;5.874;2023-01-23T04:36:31;33.13;;;30.53;;
11531;SDS011;5822;51.000;5.874;2023-01-23T04:38:56;33.03;;;30.42;;
11531;SDS011;5822;51.000;5.874;2023-01-23T04:41:24;32.08;;;29.58;;
11531;SDS011;5822;51.000;5.874;2023-01-23T04:43:51;31.60;;;29.20;;
11531;SDS011;5822;51.000;5.874;2023-01-23T04:46:17;31.27;;;28.77;;
11531;SDS011;5822;51.000;5.874;2023-01-23T04:48:42;31.00;;;28.67;;
11531;SDS011;5822;51.000;5.874;2023-01-23T04:51:08;32.65;;;29.95;;
11531;SDS011;5822;51.000;5.874;2023-01-23T04:53:34;35.63;;;32.83;;
11531;SDS011;5822;51.000;5.874;2023-01-23T04:56:00;33.65;;;31.00;;
11531;SDS011;5822;51.000;5.874;2023-01-23T04:58:25;31.40;;;28.97;;
11531;SDS011;5822;51.000;5.874;2023-01-23T05:00:51;33.83;;;31.23;;
11531;SDS011;5822;51.000;5.874;2023-01-23T05:03:17;59.70;;;56.20;;
11531;SDS011;5822;51.000;5.874;2023-01-23T05:05:43;62.37;;;58.57;;
11531;SDS011;5822;51.000;5.874;2023-01-23T05:08:11;71.28;;;67.18;;
11531;SDS011;5822;51.000;5.874;2023-01-23T05:10:37;51.45;;;48.25;;
11531;SDS011;5822;51.000;5.874;2023-01-23T05:13:03;55.63;;;52.33;;
11531;SDS011;5822;51.000;5.874;2023-01-23T05:15:29;44.80;;;41.85;;
11531;SDS011;5822;51.000;5.874;2023-01-23T05:17:55;43.55;;;40.55;;
11531;SDS011;5822;51.000;5.874;2023-01-23T05:20:21;62.03;;;58.27;;
11531;SDS011;5822;51.000;5.874;2023-01-23T05:22:49;79.80;;;75.20;;
11531;SDS011;5822;51.000;5.874;2023-01-23T05:25:19;92.38;;;87.32;;
11531;SDS011;5822;51.000;5.874;2023-01-23T05:27:46;79.63;;;75.13;;
11531;SDS011;5822;51.000;5.874;2023-01-23T05:30:12;71.00;;;66.70;;
11531;SDS011;5822;51.000;5.874;2023-01-23T05:32:37;63.90;;;60.00;;
11531;SDS011;5822;51.000;5.874;2023-01-23T05:35:03;62.00;;;58.20;;
11531;SDS011;5822;51.000;5.874;2023-01-23T05:37:29;67.05;;;63.13;;
11531;SDS011;5822;51.000;5.874;2023-01-23T05:39:55;53.60;;;50.35;;
11531;SDS011;5822;51.000;5.874;2023-01-23T05:42:20;78.07;;;73.80;;
11531;SDS011;5822;51.000;5.874;2023-01-23T05:44:46;77.22;;;73.03;;
11531;SDS011;5822;51.000;5.874;2023-01-23T05:47:11;67.75;;;63.90;;
11531;SDS011;5822;51.000;5.874;2023-01-23T05:49:38;57.63;;;53.92;;
11531;SDS011;5822;51.000;5.874;2023-01-23T05:52:03;46.83;;;43.63;;
11531;SDS011;5822;51.000;5.874;2023-01-23T05:54:29;49.20;;;45.97;;
11531;SDS011;5822;51.000;5.874;2023-01-23T05:56:55;52.57;;;49.17;;
11531;SDS011;5822;51.000;5.874;2023-01-23T05:59:21;68.27;;;64.27;;
11531;SDS011;5822;51.000;5.874;2023-01-23T06:01:46;91.20;;;86.37;;
11531;SDS011;5822;51.000;5.874;2023-01-23T06:04:12;73.35;;;69.35;;
11531;SDS011;5822;51.000;5.874;2023-01-23T06:06:40;75.57;;;71.45;;
11531;SDS011;5822;51.000;5.874;2023-01-23T06:09:08;64.85;;;60.95;;
11531;SDS011;5822;51.000;5.874;2023-01-23T06:11:34;62.70;;;59.00;;
11531;SDS011;5822;51.000;5.874;2023-01-23T06:14:00;75.90;;;71.75;;
11531;SDS011;5822;51.000;5.874;2023-01-23T06:16:25;59.00;;;55.53;;
11531;SDS011;5822;51.000;5.874;2023-01-23T06:18:51;69.47;;;65.57;;
11531;SDS011;5822;51.000;5.874;2023-01-23T06:21:17;73.97;;;69.88;;
11531;SDS011;5822;51.000;5.874;2023-01-23T06:23:45;71.82;;;67.82;;
11531;SDS011;5822;51.000;5.874;2023-01-23T06:26:11;57.65;;;54.15;;
11531;SDS011;5822;51.000;5.874;2023-01-23T06:28:37;58.83;;;55.33;;
11531;SDS011;5822;51.000;5.874;2023-01-23T06:31:03;46.67;;;43.67;;
11531;SDS011;5822;51.000;5.874;2023-01-23T06:33:30;53.42;;;50.13;;
11531;SDS011;5822;51.000;5.874;2023-01-23T06:35:57;62.33;;;58.57;;
11531;SDS011;5822;51.000;5.874;2023-01-23T06:38:27;93.13;;;88.13;;
11531;SDS011;5822;51.000;5.874;2023-01-23T06:40:53;94.90;;;89.90;;
11531;SDS011;5822;51.000;5.874;2023-01-23T06:43:19;82.80;;;78.23;;
11531;SDS011;5822;51.000;5.874;2023-01-23T06:45:46;82.63;;;78.07;;
11531;SDS011;5822;51.000;5.874;2023-01-23T06:48:12;62.28;;;58.60;;
11531;SDS011;5822;51.000;5.874;2023-01-23T06:50:38;58.80;;;55.30;;
11531;SDS011;5822;51.000;5.874;2023-01-23T06:53:04;58.05;;;54.65;;
11531;SDS011;5822;51.000;5.874;2023-01-23T06:55:30;55.40;;;52.20;;
11531;SDS011;5822;51.000;5.874;2023-01-23T06:57:56;66.85;;;62.97;;
11531;SDS011;5822;51.000;5.874;2023-01-23T07:00:22;69.75;;;65.75;;
11531;SDS011;5822;51.000;5.874;2023-01-23T07:02:48;69.18;;;65.28;;
11531;SDS011;5822;51.000;5.874;2023-01-23T07:05:14;55.65;;;52.35;;
11531;SDS011;5822;51.000;5.874;2023-01-23T07:07:40;44.60;;;41.70;;
11531;SDS011;5822;51.000;5.874;2023-01-23T07:10:05;40.65;;;37.95;;
11531;SDS011;5822;51.000;5.874;2023-01-23T07:12:32;49.83;;;46.77;;
11531;SDS011;5822;51.000;5.874;2023-01-23T07:14:57;72.95;;;68.90;;
11531;SDS011;5822;51.000;5.874;2023-01-23T07:17:23;95.10;;;90.10;;
11531;SDS011;5822;51.000;5.874;2023-01-23T07:19:49;85.45;;;80.85;;
11531;SDS011;5822;51.000;5.874;2023-01-23T07:22:15;76.47;;;72.27;;
11531;SDS011;5822;51.000;5.874;2023-01-23T07:24:42;65.05;;;61.35;;
11531;SDS011;5822;51.000;5.874;2023-01-23T07:27:08;58.50;;;55.10;;
11531;SDS011;5822;51.000;5.874;2023-01-23T07:29:33;62.90;;;59.40;;
11531;SDS011;5822;51.000;5.874;2023-01-23T07:31:59;59.05;;;55.55;;
11531;SDS011;5822;51.000;5.874;2023-01-23T07:34:25;56.80;;;53.40;;
11531;SDS011;5822;51.000;5.874;2023-01-23T07:36:51;68.57;;;64.68;;
11531;SDS011;5822;51.000;5.874;2023-01-23T07:39:16;73.93;;;69.83;;
11531;SDS011;5822;51.000;5.874;2023-01-23T07:41:42;75.30;;;71.03;;
11531;SDS011;5822;51.000;5.874;2023-01-23T07:44:08;56.87;;;53.47;;
11531;SDS011;5822;51.000;5.874;2023-01-23T07:46:41;40.30;;;37.70;;
11531;SDS011;5822;51.000;5.874;2023-01-23T07:49:07;39.40;;;36.85;;
11531;SDS011;5822;51.000;5.874;2023-01-23T07:51:33;51.57;;;48.53;;
11531;SDS011;5822;51.000;5.874;2023-01-23T07:53:59;56.08;;;52.83;;
11531;SDS011;5822;51.000;5.874;2023-01-23T07:56:25;62.72;;;59.13;;
11531;SDS011;5822;51.000;5.874;2023-01-23T07:58:50;69.03;;;65.13;;
11531;SDS011;5822;51.000;5.874;2023-01-23T08:01:16;68.47;;;64.67;;
11531;SDS011;5822;51.000;5.874;2023-01-23T08:03:43;66.55;;;62.78;;
11531;SDS011;5822;51.000;5.874;2023-01-23T08:06:12;59.88;;;56.38;;
11531;SDS011;5822;51.000;5.874;2023-01-23T08:08:38;54.13;;;50.92;;
11531;SDS011;5822;51.000;5.874;2023-01-23T08:11:04;53.10;;;50.00;;
11531;SDS011;5822;51.000;5.874;2023-01-23T08:13:31;59.90;;;56.40;;
11531;SDS011;5822;51.000;5.874;2023-01-23T08:15:57;61.80;;;58.38;;
11531;SDS011;5822;51.000;5.874;2023-01-23T08:18:24;67.60;;;63.90;;
11531;SDS011;5822;51.000;5.874;2023-01-23T08:20:54;53.10;;;50.13;;
11531;SDS011;5822;51.000;5.874;2023-01-23T08:23:28;48.85;;;45.85;;
11531;SDS011;5822;51.000;5.874;2023-01-23T08:25:56;47.42;;;44.45;;
11531;SDS011;5822;51.000;5.874;2023-01-23T08:28:23;41.88;;;39.17;;
11531;SDS011;5822;51.000;5.874;2023-01-23T08:30:50;46.60;;;43.80;;
11531;SDS011;5822;51.000;5.874;2023-01-23T08:33:17;66.10;;;62.45;;
11531;SDS011;5822;51.000;5.874;2023-01-23T08:38:19;65.25;;;61.75;;
11531;SDS011;5822;51.000;5.874;2023-01-23T08:40:46;60.00;;;56.65;;
11531;SDS011;5822;51.000;5.874;2023-01-23T08:43:12;50.28;;;47.45;;
11531;SDS011;5822;51.000;5.874;2023-01-23T08:45:46;45.77;;;43.07;;
11531;SDS011;5822;51.000;5.874;2023-01-23T08:48:13;46.75;;;44.15;;
11531;SDS011;5822;51.000;5.874;2023-01-23T08:50:39;48.73;;;46.03;;
11531;SDS011;5822;51.000;5.874;2023-01-23T08:53:05;54.03;;;51.13;;
11531;SDS011;5822;51.000;5.874;2023-01-23T08:55:31;55.80;;;52.78;;
11531;SDS011;5822;51.000;5.874;2023-01-23T08:57:57;55.43;;;52.43;;
11531;SDS011;5822;51.000;5.874;2023-01-23T09:00:23;48.43;;;45.67;;
11531;SDS011;5822;51.000;5.874;2023-01-23T09:02:49;37.33;;;34.83;;
11531;SDS011;5822;51.000;5.874;2023-01-23T09:05:16;37.33;;;34.83;;
11531;SDS011;5822;51.000;5.874;2023-01-23T09:07:41;46.05;;;43.35;;
11531;SDS011;5822;51.000;5.874;2023-01-23T09:10:08;59.50;;;56.30;;
11531;SDS011;5822;51.000;5.874;2023-01-23T09:12:34;70.83;;;67.03;;
11531;SDS011;5822;51.000;5.874;2023-01-23T09:15:00;67.50;;;63.92;;
11531;SDS011;5822;51.000;5.874;2023-01-23T09:17:26;59.15;;;55.85;;
11531;SDS011;5822;51.000;5.874;2023-01-23T09:19:52;51.07;;;48.17;;
11531;SDS011;5822;51.000;5.874;2023-01-23T09:22:17;50.13;;;47.20;;
11531;SDS011;5822;51.000;5.874;2023-01-23T09:24:43;48.83;;;46.03;;
11531;SDS011;5822;51.000;5.874;2023-01-23T09:27:09;44.00;;;41.40;;
11531;SDS011;5822;51.000;5.874;2023-01-23T09:29:35;47.97;;;45.28;;
11531;SDS011;5822;51.000;5.874;2023-01-23T09:32:01;55.17;;;52.13;;
11531;SDS011;5822;51.000;5.874;2023-01-23T09:34:28;53.45;;;50.55;;
11531;SDS011;5822;51.000;5.874;2023-01-23T09:36:54;46.75;;;43.97;;
11531;SDS011;5822;51.000;5.874;2023-01-23T09:39:20;41.08;;;38.58;;
11531;SDS011;5822;51.000;5.874;2023-01-23T09:41:46;39.97;;;37.37;;
11531;SDS011;5822;51.000;5.874;2023-01-23T09:44:20;36.53;;;34.13;;
11531;SDS011;5822;51.000;5.874;2023-01-23T09:47:06;44.90;;;42.30;;
11531;SDS011;5822;51.000;5.874;2023-01-23T09:49:43;59.73;;;56.50;;
11531;SDS011;5822;51.000;5.874;2023-01-23T09:52:18;73.75;;;69.82;;
11531;SDS011;5822;51.000;5.874;2023-01-23T09:57:41;29.00;;;27.03;;
11531;SDS011;5822;51.000;5.874;2023-01-23T10:00:12;30.58;;;28.48;;
11531;SDS011;5822;51.000;5.874;2023-01-23T10:02:43;40.15;;;37.72;;
11531;SDS011;5822;51.000;5.874;2023-01-23T10:05:16;47.30;;;44.60;;
11531;SDS011;5822;51.000;5.874;2023-01-23T10:13:06;43.80;;;41.30;;
11531;SDS011;5822;51.000;5.874;2023-01-23T10:18:14;40.78;;;38.38;;
11531;SDS011;5822;51.000;5.874;2023-01-23T10:26:09;33.20;;;31.10;;
11531;SDS011;5822;51.000;5.874;2023-01-23T10:28:42;44.00;;;41.60;;
11531;SDS011;5822;51.000;5.874;2023-01-23T10:31:11;56.30;;;53.30;;
11531;SDS011;5822;51.000;5.874;2023-01-23T10:33:50;53.87;;;51.07;;
11531;SDS011;5822;51.000;5.874;2023-01-23T10:36:35;54.00;;;51.10;;
11531;SDS011;5822;51.000;5.874;2023-01-23T10:39:28;51.70;;;48.85;;
11531;SDS011;5822;51.000;5.874;2023-01-23T10:42:10;56.42;;;53.42;;
11531;SDS011;5822;51.000;5.874;2023-01-23T10:44:37;43.55;;;41.15;;
11531;SDS011;5822;51.000;5.874;2023-01-23T10:47:03;43.67;;;41.27;;
11531;SDS011;5822;51.000;5.874;2023-01-23T10:49:43;40.25;;;38.00;;
11531;SDS011;5822;51.000;5.874;2023-01-23T10:54:58;47.42;;;44.83;;
11531;SDS011;5822;51.000;5.874;2023-01-23T10:57:25;39.42;;;37.22;;
11531;SDS011;5822;51.000;5.874;2023-01-23T10:59:59;30.52;;;28.73;;
11531;SDS011;5822;51.000;5.874;2023-01-23T11:02:33;33.40;;;31.40;;
11531;SDS011;5822;51.000;5.874;2023-01-23T11:05:01;40.15;;;37.85;;
11531;SDS011;5822;51.000;5.874;2023-01-23T11:07:49;50.97;;;48.20;;
11531;SDS011;5822;51.000;5.874;2023-01-23T11:10:20;60.75;;;57.45;;
11531;SDS011;5822;51.000;5.874;2023-01-23T11:12:50;58.80;;;55.63;;
11531;SDS011;5822;51.000;5.874;2023-01-23T11:15:27;61.97;;;58.58;;
11531;SDS011;5822;51.000;5.874;2023-01-23T11:17:56;55.45;;;52.45;;
11531;SDS011;5822;51.000;5.874;2023-01-23T11:23:05;45.88;;;43.35;;
11531;SDS011;5822;51.000;5.874;2023-01-23T11:25:44;46.70;;;44.08;;
11531;SDS011;5822;51.000;5.874;2023-01-23T11:38:30;36.45;;;34.20;;
11531;SDS011;5822;51.000;5.874;2023-01-23T11:41:12;35.42;;;33.22;;
11531;SDS011;5822;51.000;5.874;2023-01-23T11:43:38;37.78;;;35.58;;
11531;SDS011;5822;51.000;5.874;2023-01-23T12:01:52;47.15;;;44.55;;
11531;SDS011;5822;51.000;5.874;2023-01-23T12:04:31;33.63;;;31.63;;
11531;SDS011;5822;51.000;5.874;2023-01-23T12:07:15;33.47;;;31.38;;
11531;SDS011;5822;51.000;5.874;2023-01-23T12:21:04;47.95;;;45.25;;
11531;SDS011;5822;51.000;5.874;2023-01-23T12:26:17;47.67;;;45.08;;
11531;SDS011;5822;51.000;5.874;2023-01-23T12:43:02;33.55;;;31.55;;
11531;SDS011;5822;51.000;5.874;2023-01-23T12:45:35;31.98;;;29.98;;
11531;SDS011;5822;51.000;5.874;2023-01-23T12:48:12;35.58;;;33.47;;
11531;SDS011;5822;51.000;5.874;2023-01-23T12:50:44;33.00;;;31.00;;
11531;SDS011;5822;51.000;5.874;2023-01-23T12:53:17;28.15;;;26.30;;
11531;SDS011;5822;51.000;5.874;2023-01-23T12:55:57;28.67;;;26.73;;
11531;SDS011;5822;51.000;5.874;2023-01-23T12:58:50;26.90;;;25.20;;
11531;SDS011;5822;51.000;5.874;2023-01-23T13:01:39;31.65;;;29.77;;
11531;SDS011;5822;51.000;5.874;2023-01-23T13:07:33;35.63;;;33.63;;
11531;SDS011;5822;51.000;5.874;2023-01-23T13:10:28;36.20;;;34.20;;
11531;SDS011;5822;51.000;5.874;2023-01-23T13:13:22;32.75;;;30.90;;
11531;SDS011;5822;51.000;5.874;2023-01-23T13:16:23;25.92;;;24.33;;
11531;SDS011;5822;51.000;5.874;2023-01-23T13:18:52;27.35;;;25.55;;
11531;SDS011;5822;51.000;5.874;2023-01-23T13:21:37;29.35;;;27.55;;
11531;SDS011;5822;51.000;5.874;2023-01-23T13:35:54;26.98;;;25.27;;
11531;SDS011;5822;51.000;5.874;2023-01-23T13:52:14;36.45;;;34.35;;
11531;SDS011;5822;51.000;5.874;2023-01-23T13:55:01;25.02;;;23.42;;
11531;SDS011;5822;51.000;5.874;2023-01-23T13:57:56;25.55;;;23.85;;
11531;SDS011;5822;51.000;5.874;2023-01-23T14:00:22;26.17;;;24.47;;
11531;SDS011;5822;51.000;5.874;2023-01-23T14:06:10;33.28;;;31.38;;
11531;SDS011;5822;51.000;5.874;2023-01-23T14:08:52;32.30;;;30.50;;
11531;SDS011;5822;51.000;5.874;2023-01-23T14:11:19;26.10;;;24.47;;
11531;SDS011;5822;51.000;5.874;2023-01-23T14:13:49;25.05;;;23.48;;
11531;SDS011;5822;51.000;5.874;2023-01-23T14:16:36;27.58;;;25.88;;
11531;SDS011;5822;51.000;5.874;2023-01-23T14:21:52;33.53;;;31.73;;
11531;SDS011;5822;51.000;5.874;2023-01-23T14:24:24;36.17;;;34.27;;
11531;SDS011;5822;51.000;5.874;2023-01-23T14:26:57;38.92;;;36.83;;
11531;SDS011;5822;51.000;5.874;2023-01-23T14:29:25;34.60;;;32.80;;
11531;SDS011;5822;51.000;5.874;2023-01-23T14:31:51;26.00;;;24.50;;
11531;SDS011;5822;51.000;5.874;2023-01-23T14:36:49;25.90;;;24.40;;
11531;SDS011;5822;51.000;5.874;2023-01-23T14:39:18;28.77;;;27.17;;
11531;SDS011;5822;51.000;5.874;2023-01-23T14:41:50;33.17;;;31.37;;
11531;SDS011;5822;51.000;5.874;2023-01-23T14:44:19;35.70;;;33.90;;
11531;SDS011;5822;51.000;5.874;2023-01-23T14:46:51;26.42;;;24.92;;
11531;SDS011;5822;51.000;5.874;2023-01-23T14:49:39;24.10;;;22.70;;
11531;SDS011;5822;51.000;5.874;2023-01-23T14:52:05;24.90;;;23.40;;
11531;SDS011;5822;51.000;5.874;2023-01-23T14:54:32;29.30;;;27.70;;
11531;SDS011;5822;51.000;5.874;2023-01-23T14:56:59;31.95;;;30.25;;
11531;SDS011;5822;51.000;5.874;2023-01-23T14:59:32;32.00;;;30.30;;
11531;SDS011;5822;51.000;5.874;2023-01-23T15:02:02;32.72;;;31.02;;
11531;SDS011;5822;51.000;5.874;2023-01-23T15:05:08;30.00;;;28.35;;
11531;SDS011;5822;51.000;5.874;2023-01-23T15:07:47;30.35;;;28.65;;
11531;SDS011;5822;51.000;5.874;2023-01-23T15:15:43;27.90;;;26.30;;
11531;SDS011;5822;51.000;5.874;2023-01-23T15:18:31;25.23;;;23.73;;
11531;SDS011;5822;51.000;5.874;2023-01-23T15:21:00;30.17;;;28.48;;
11531;SDS011;5822;51.000;5.874;2023-01-23T15:23:32;25.10;;;23.60;;
11531;SDS011;5822;51.000;5.874;2023-01-23T15:36:48;38.00;;;36.00;;
11531;SDS011;5822;51.000;5.874;2023-01-23T15:41:51;32.78;;;31.08;;
11531;SDS011;5822;51.000;5.874;2023-01-23T15:44:20;32.65;;;30.95;;
11531;SDS011;5822;51.000;5.874;2023-01-23T15:46:47;32.05;;;30.35;;
11531;SDS011;5822;51.000;5.874;2023-01-23T15:49:13;26.08;;;24.58;;
11531;SDS011;5822;51.000;5.874;2023-01-23T15:51:39;26.05;;;24.45;;
11531;SDS011;5822;51.000;5.874;2023-01-23T15:54:04;25.67;;;24.17;;
11531;SDS011;5822;51.000;5.874;2023-01-23T15:56:31;25.45;;;23.95;;
11531;SDS011;5822;51.000;5.874;2023-01-23T15:58:58;34.08;;;32.35;;
11531;SDS011;5822;51.000;5.874;2023-01-23T16:01:26;25.15;;;23.75;;
11531;SDS011;5822;51.000;5.874;2023-01-23T16:03:52;26.42;;;24.83;;
11531;SDS011;5822;51.000;5.874;2023-01-23T16:06:18;27.37;;;25.67;;
11531;SDS011;5822;51.000;5.874;2023-01-23T16:08:49;26.60;;;25.00;;
11531;SDS011;5822;51.000;5.874;2023-01-23T16:11:16;31.08;;;29.27;;
11531;SDS011;5822;51.000;5.874;2023-01-23T16:13:42;33.53;;;31.83;;
11531;SDS011;5822;51.000;5.874;2023-01-23T16:16:16;33.20;;;31.50;;
11531;SDS011;5822;51.000;5.874;2023-01-23T16:18:42;30.07;;;28.57;;
11531;SDS011;5822;51.000;5.874;2023-01-23T16:21:15;31.40;;;29.80;;
11531;SDS011;5822;51.000;5.874;2023-01-23T16:23:42;30.10;;;28.50;;
11531;SDS011;5822;51.000;5.874;2023-01-23T16:26:17;24.52;;;23.13;;
11531;SDS011;5822;51.000;5.874;2023-01-23T16:28:45;23.83;;;22.48;;
11531;SDS011;5822;51.000;5.874;2023-01-23T16:31:14;23.10;;;21.80;;
11531;SDS011;5822;51.000;5.874;2023-01-23T16:33:41;22.45;;;21.15;;
11531;SDS011;5822;51.000;5.874;2023-01-23T16:36:17;24.92;;;23.52;;
11531;SDS011;5822;51.000;5.874;2023-01-23T16:38:47;27.27;;;25.77;;
11531;SDS011;5822;51.000;5.874;2023-01-23T16:41:16;24.20;;;22.83;;
11531;SDS011;5822;51.000;5.874;2023-01-23T16:43:42;25.27;;;23.87;;
11531;SDS011;5822;51.000;5.874;2023-01-23T16:46:09;27.38;;;25.88;;
11531;SDS011;5822;51.000;5.874;2023-01-23T16:48:35;24.40;;;23.00;;
11531;SDS011;5822;51.000;5.874;2023-01-23T16:51:12;28.87;;;27.37;;
11531;SDS011;5822;51.000;5.874;2023-01-23T16:53:43;30.13;;;28.52;;
11531;SDS011;5822;51.000;5.874;2023-01-23T16:56:20;31.67;;;29.98;;
11531;SDS011;5822;51.000;5.874;2023-01-23T16:58:53;30.05;;;28.45;;
11531;SDS011;5822;51.000;5.874;2023-01-23T17:01:20;29.98;;;28.38;;
11531;SDS011;5822;51.000;5.874;2023-01-23T17:03:50;24.17;;;22.77;;
11531;SDS011;5822;51.000;5.874;2023-01-23T17:06:21;23.38;;;21.98;;
11531;SDS011;5822;51.000;5.874;2023-01-23T17:08:47;23.92;;;22.52;;
11531;SDS011;5822;51.000;5.874;2023-01-23T17:11:19;23.40;;;22.00;;
11531;SDS011;5822;51.000;5.874;2023-01-23T17:13:54;24.80;;;23.40;;
11531;SDS011;5822;51.000;5.874;2023-01-23T17:16:22;28.50;;;27.00;;
11531;SDS011;5822;51.000;5.874;2023-01-23T17:18:48;26.15;;;24.65;;
11531;SDS011;5822;51.000;5.874;2023-01-23T17:21:16;25.10;;;23.60;;
11531;SDS011;5822;51.000;5.874;2023-01-23T17:23:44;24.17;;;22.77;;